sensor_id;sensor_type;location;lat;lon;timestamp;temperature;humidity
75161;DHT22;67232;50.096;8.716;2023-02-20T00:02:09;11.80;75.20
75161;DHT22;67232;50.096;8.716;2023-02-20T00:04:37;11.70;75.10
75161;DHT22;67232;50.096;8.716;2023-02-20T00:07:07;11.70;75.10
75161;DHT22;67232;50.096;8.716;2023-02-20T00:09:42;11.60;75.20
75161;DHT22;67232;50.096;8.716;2023-02-20T00:12:13;11.70;75.10
75161;DHT22;67232;50.096;8.716;2023-02-20T00:14:41;11.60;75.10
75161;DHT22;67232;50.096;8.716;2023-02-20T00:17:09;11.30;75.50
75161;DHT22;67232;50.096;8.716;2023-02-20T00:19:39;11.20;75.60
75161;DHT22;67232;50.096;8.716;2023-02-20T00:22:07;11.10;75.90
75161;DHT22;67232;50.096;8.716;2023-02-20T00:24:39;11.10;76.20
75161;DHT22;67232;50.096;8.716;2023-02-20T00:27:04;11.20;76.00
75161;DHT22;67232;50.096;8.716;2023-02-20T00:29:33;11.10;76.20
75161;DHT22;67232;50.096;8.716;2023-02-20T00:32:03;11.20;76.10
75161;DHT22;67232;50.096;8.716;2023-02-20T00:34:36;11.20;76.20
75161;DHT22;67232;50.096;8.716;2023-02-20T00:37:01;11.20;76.20
75161;DHT22;67232;50.096;8.716;2023-02-20T00:39:34;11.30;76.10
75161;DHT22;67232;50.096;8.716;2023-02-20T00:42:07;11.30;76.00
75161;DHT22;67232;50.096;8.716;2023-02-20T00:44:35;11.30;75.90
75161;DHT22;67232;50.096;8.716;2023-02-20T00:47:07;11.10;76.10
75161;DHT22;67232;50.096;8.716;2023-02-20T00:49:35;11.20;76.20
75161;DHT22;67232;50.096;8.716;2023-02-20T00:52:01;11.20;75.80
75161;DHT22;67232;50.096;8.716;2023-02-20T00:54:27;11.10;75.90
75161;DHT22;67232;50.096;8.716;2023-02-20T00:56:57;11.10;76.10
75161;DHT22;67232;50.096;8.716;2023-02-20T00:59:25;11.00;76.20
75161;DHT22;67232;50.096;8.716;2023-02-20T01:01:53;10.90;76.30
75161;DHT22;67232;50.096;8.716;2023-02-20T01:04:18;10.80;76.50
75161;DHT22;67232;50.096;8.716;2023-02-20T01:06:46;10.60;77.00
75161;DHT22;67232;50.096;8.716;2023-02-20T01:09:14;10.50;77.30
75161;DHT22;67232;50.096;8.716;2023-02-20T01:11:48;10.40;77.40
75161;DHT22;67232;50.096;8.716;2023-02-20T01:14:16;10.20;78.00
75161;DHT22;67232;50.096;8.716;2023-02-20T01:16:46;10.10;78.00
75161;DHT22;67232;50.096;8.716;2023-02-20T01:19:17;10.10;78.10
75161;DHT22;67232;50.096;8.716;2023-02-20T01:21:47;10.00;78.30
75161;DHT22;67232;50.096;8.716;2023-02-20T01:24:19;10.10;78.20
75161;DHT22;67232;50.096;8.716;2023-02-20T01:26:48;10.20;78.00
75161;DHT22;67232;50.096;8.716;2023-02-20T01:29:19;10.20;77.90
75161;DHT22;67232;50.096;8.716;2023-02-20T01:31:49;10.30;77.80
75161;DHT22;67232;50.096;8.716;2023-02-20T01:34:18;10.20;77.80
75161;DHT22;67232;50.096;8.716;2023-02-20T01:36:51;10.10;78.00
75161;DHT22;67232;50.096;8.716;2023-02-20T01:39:19;10.00;78.10
75161;DHT22;67232;50.096;8.716;2023-02-20T01:41:49;10.10;78.20
75161;DHT22;67232;50.096;8.716;2023-02-20T01:44:28;10.10;78.10
75161;DHT22;67232;50.096;8.716;2023-02-20T01:46:58;10.10;78.20
75161;DHT22;67232;50.096;8.716;2023-02-20T01:49:39;10.10;78.20
75161;DHT22;67232;50.096;8.716;2023-02-20T01:52:17;10.10;78.20
75161;DHT22;67232;50.096;8.716;2023-02-20T01:54:48;10.20;78.20
75161;DHT22;67232;50.096;8.716;2023-02-20T01:57:20;10.10;78.20
75161;DHT22;67232;50.096;8.716;2023-02-20T01:59:49;10.10;78.20
75161;DHT22;67232;50.096;8.716;2023-02-20T02:02:15;10.10;78.20
75161;DHT22;67232;50.096;8.716;2023-02-20T02:04:44;10.10;78.10
75161;DHT22;67232;50.096;8.716;2023-02-20T02:07:11;10.10;78.10
75161;DHT22;67232;50.096;8.716;2023-02-20T02:09:54;10.30;77.80
75161;DHT22;67232;50.096;8.716;2023-02-20T02:12:21;10.10;77.50
75161;DHT22;67232;50.096;8.716;2023-02-20T02:14:49;10.00;77.60
75161;DHT22;67232;50.096;8.716;2023-02-20T02:20:26;9.70;77.80
75161;DHT22;67232;50.096;8.716;2023-02-20T02:37:30;9.40;78.10
75161;DHT22;67232;50.096;8.716;2023-02-20T02:40:03;9.50;78.20
75161;DHT22;67232;50.096;8.716;2023-02-20T02:50:53;9.70;77.70
75161;DHT22;67232;50.096;8.716;2023-02-20T02:53:23;9.70;77.80
75161;DHT22;67232;50.096;8.716;2023-02-20T02:55:49;9.80;77.60
75161;DHT22;67232;50.096;8.716;2023-02-20T02:58:15;9.70;77.70
75161;DHT22;67232;50.096;8.716;2023-02-20T03:00:45;9.70;77.40
75161;DHT22;67232;50.096;8.716;2023-02-20T03:05:51;9.60;77.70
75161;DHT22;67232;50.096;8.716;2023-02-20T03:08:40;9.50;77.50
75161;DHT22;67232;50.096;8.716;2023-02-20T03:11:11;9.20;77.90
75161;DHT22;67232;50.096;8.716;2023-02-20T03:13:45;9.30;78.20
75161;DHT22;67232;50.096;8.716;2023-02-20T03:19:27;9.50;77.80
75161;DHT22;67232;50.096;8.716;2023-02-20T03:21:55;9.40;77.80
75161;DHT22;67232;50.096;8.716;2023-02-20T03:24:25;9.40;77.70
75161;DHT22;67232;50.096;8.716;2023-02-20T03:26:55;9.40;77.70
75161;DHT22;67232;50.096;8.716;2023-02-20T03:29:31;9.20;78.00
75161;DHT22;67232;50.096;8.716;2023-02-20T03:32:06;9.20;78.10
75161;DHT22;67232;50.096;8.716;2023-02-20T03:34:52;9.30;78.20
75161;DHT22;67232;50.096;8.716;2023-02-20T03:37:42;9.30;78.00
75161;DHT22;67232;50.096;8.716;2023-02-20T03:40:28;9.40;77.80
75161;DHT22;67232;50.096;8.716;2023-02-20T03:43:17;9.10;78.00
75161;DHT22;67232;50.096;8.716;2023-02-20T03:45:59;9.00;78.40
75161;DHT22;67232;50.096;8.716;2023-02-20T03:51:11;9.10;77.90
75161;DHT22;67232;50.096;8.716;2023-02-20T03:53:42;9.10;77.90
75161;DHT22;67232;50.096;8.716;2023-02-20T03:56:11;9.30;77.60
75161;DHT22;67232;50.096;8.716;2023-02-20T03:58:44;9.20;77.60
75161;DHT22;67232;50.096;8.716;2023-02-20T04:01:12;9.20;77.40
75161;DHT22;67232;50.096;8.716;2023-02-20T04:03:44;9.00;77.70
75161;DHT22;67232;50.096;8.716;2023-02-20T04:06:11;9.10;77.50
75161;DHT22;67232;50.096;8.716;2023-02-20T04:08:44;9.10;77.60
75161;DHT22;67232;50.096;8.716;2023-02-20T04:13:46;9.10;77.50
75161;DHT22;67232;50.096;8.716;2023-02-20T04:16:13;9.10;77.70
75161;DHT22;67232;50.096;8.716;2023-02-20T04:18:38;8.90;78.10
75161;DHT22;67232;50.096;8.716;2023-02-20T04:21:12;8.60;78.40
75161;DHT22;67232;50.096;8.716;2023-02-20T04:23:44;8.60;78.60
75161;DHT22;67232;50.096;8.716;2023-02-20T04:26:18;8.60;78.70
75161;DHT22;67232;50.096;8.716;2023-02-20T04:28:49;8.70;78.60
75161;DHT22;67232;50.096;8.716;2023-02-20T04:31:18;8.60;78.70
75161;DHT22;67232;50.096;8.716;2023-02-20T04:33:45;8.50;78.80
75161;DHT22;67232;50.096;8.716;2023-02-20T04:36:11;8.40;79.20
75161;DHT22;67232;50.096;8.716;2023-02-20T04:38:37;8.50;79.20
75161;DHT22;67232;50.096;8.716;2023-02-20T04:41:06;8.60;79.10
75161;DHT22;67232;50.096;8.716;2023-02-20T04:43:44;8.50;79.30
75161;DHT22;67232;50.096;8.716;2023-02-20T04:46:30;8.50;79.50
75161;DHT22;67232;50.096;8.716;2023-02-20T04:48:58;8.40;79.70
75161;DHT22;67232;50.096;8.716;2023-02-20T04:51:26;8.40;80.00
75161;DHT22;67232;50.096;8.716;2023-02-20T04:53:52;8.40;80.20
75161;DHT22;67232;50.096;8.716;2023-02-20T04:56:18;8.40;80.30
75161;DHT22;67232;50.096;8.716;2023-02-20T04:58:50;8.50;80.20
75161;DHT22;67232;50.096;8.716;2023-02-20T05:01:16;8.50;80.00
75161;DHT22;67232;50.096;8.716;2023-02-20T05:04:01;8.50;80.30
75161;DHT22;67232;50.096;8.716;2023-02-20T05:06:40;8.40;80.40
75161;DHT22;67232;50.096;8.716;2023-02-20T05:09:09;8.40;80.60
75161;DHT22;67232;50.096;8.716;2023-02-20T05:11:38;8.50;80.50
75161;DHT22;67232;50.096;8.716;2023-02-20T05:14:07;8.40;80.70
75161;DHT22;67232;50.096;8.716;2023-02-20T05:16:36;8.30;81.00
75161;DHT22;67232;50.096;8.716;2023-02-20T05:19:06;8.40;80.90
75161;DHT22;67232;50.096;8.716;2023-02-20T05:21:31;8.40;81.10
75161;DHT22;67232;50.096;8.716;2023-02-20T05:24:16;8.30;81.20
75161;DHT22;67232;50.096;8.716;2023-02-20T05:26:42;8.40;81.30
75161;DHT22;67232;50.096;8.716;2023-02-20T05:29:11;8.40;81.20
75161;DHT22;67232;50.096;8.716;2023-02-20T05:31:41;8.50;81.10
75161;DHT22;67232;50.096;8.716;2023-02-20T05:34:08;8.50;81.10
75161;DHT22;67232;50.096;8.716;2023-02-20T05:36:34;8.50;81.00
75161;DHT22;67232;50.096;8.716;2023-02-20T05:39:04;8.50;81.10
75161;DHT22;67232;50.096;8.716;2023-02-20T05:41:33;8.40;81.20
75161;DHT22;67232;50.096;8.716;2023-02-20T05:44:02;8.40;81.30
75161;DHT22;67232;50.096;8.716;2023-02-20T05:46:31;8.40;81.30
75161;DHT22;67232;50.096;8.716;2023-02-20T05:48:59;8.30;81.60
75161;DHT22;67232;50.096;8.716;2023-02-20T05:51:31;8.40;81.50
75161;DHT22;67232;50.096;8.716;2023-02-20T05:54:15;8.50;81.40
75161;DHT22;67232;50.096;8.716;2023-02-20T05:56:50;8.50;81.20
75161;DHT22;67232;50.096;8.716;2023-02-20T05:59:17;8.40;81.50
75161;DHT22;67232;50.096;8.716;2023-02-20T06:01:43;8.40;81.40
75161;DHT22;67232;50.096;8.716;2023-02-20T06:04:11;8.30;81.60
75161;DHT22;67232;50.096;8.716;2023-02-20T06:06:39;8.30;81.80
75161;DHT22;67232;50.096;8.716;2023-02-20T06:09:35;8.40;81.60
75161;DHT22;67232;50.096;8.716;2023-02-20T06:12:37;8.30;81.70
75161;DHT22;67232;50.096;8.716;2023-02-20T06:15:23;8.30;81.70
75161;DHT22;67232;50.096;8.716;2023-02-20T06:17:51;8.20;81.80
75161;DHT22;67232;50.096;8.716;2023-02-20T06:20:17;8.10;81.90
75161;DHT22;67232;50.096;8.716;2023-02-20T06:22:47;8.20;81.90
75161;DHT22;67232;50.096;8.716;2023-02-20T06:25:13;8.00;82.10
75161;DHT22;67232;50.096;8.716;2023-02-20T06:27:41;7.90;82.40
75161;DHT22;67232;50.096;8.716;2023-02-20T06:30:07;8.20;82.00
75161;DHT22;67232;50.096;8.716;2023-02-20T06:32:33;8.00;82.00
75161;DHT22;67232;50.096;8.716;2023-02-20T06:35:04;8.00;82.10
75161;DHT22;67232;50.096;8.716;2023-02-20T06:37:30;8.30;81.90
75161;DHT22;67232;50.096;8.716;2023-02-20T06:39:56;8.30;81.70
75161;DHT22;67232;50.096;8.716;2023-02-20T06:42:24;8.30;81.70
75161;DHT22;67232;50.096;8.716;2023-02-20T06:44:50;8.30;81.60
75161;DHT22;67232;50.096;8.716;2023-02-20T06:47:19;8.30;81.70
75161;DHT22;67232;50.096;8.716;2023-02-20T06:49:45;8.30;81.60
75161;DHT22;67232;50.096;8.716;2023-02-20T06:52:12;8.20;81.80
75161;DHT22;67232;50.096;8.716;2023-02-20T06:54:39;8.30;81.60
75161;DHT22;67232;50.096;8.716;2023-02-20T06:57:05;8.40;81.50
75161;DHT22;67232;50.096;8.716;2023-02-20T06:59:33;8.30;81.50
75161;DHT22;67232;50.096;8.716;2023-02-20T07:02:04;8.30;81.60
75161;DHT22;67232;50.096;8.716;2023-02-20T07:04:33;8.50;81.30
75161;DHT22;67232;50.096;8.716;2023-02-20T07:07:01;8.40;81.40
75161;DHT22;67232;50.096;8.716;2023-02-20T07:09:27;8.30;81.50
75161;DHT22;67232;50.096;8.716;2023-02-20T07:11:54;8.30;81.50
75161;DHT22;67232;50.096;8.716;2023-02-20T07:14:20;8.30;81.50
75161;DHT22;67232;50.096;8.716;2023-02-20T07:16:46;8.40;81.40
75161;DHT22;67232;50.096;8.716;2023-02-20T07:19:12;8.40;81.50
75161;DHT22;67232;50.096;8.716;2023-02-20T07:21:48;8.40;81.40
75161;DHT22;67232;50.096;8.716;2023-02-20T07:24:15;8.50;81.30
75161;DHT22;67232;50.096;8.716;2023-02-20T07:26:41;8.40;81.40
75161;DHT22;67232;50.096;8.716;2023-02-20T07:29:11;8.20;81.60
75161;DHT22;67232;50.096;8.716;2023-02-20T07:31:39;8.40;81.60
75161;DHT22;67232;50.096;8.716;2023-02-20T07:34:08;8.50;81.20
75161;DHT22;67232;50.096;8.716;2023-02-20T07:36:35;8.50;81.30
75161;DHT22;67232;50.096;8.716;2023-02-20T07:39:02;8.50;81.10
75161;DHT22;67232;50.096;8.716;2023-02-20T07:41:31;8.50;81.20
75161;DHT22;67232;50.096;8.716;2023-02-20T07:43:57;8.50;81.20
75161;DHT22;67232;50.096;8.716;2023-02-20T07:46:23;8.60;81.20
75161;DHT22;67232;50.096;8.716;2023-02-20T07:48:51;8.70;80.90
75161;DHT22;67232;50.096;8.716;2023-02-20T07:51:26;8.80;80.90
75161;DHT22;67232;50.096;8.716;2023-02-20T07:53:57;9.00;80.60
75161;DHT22;67232;50.096;8.716;2023-02-20T07:56:23;9.10;80.30
75161;DHT22;67232;50.096;8.716;2023-02-20T07:58:50;9.10;80.40
75161;DHT22;67232;50.096;8.716;2023-02-20T08:01:16;9.20;80.30
75161;DHT22;67232;50.096;8.716;2023-02-20T08:03:42;9.20;80.20
75161;DHT22;67232;50.096;8.716;2023-02-20T08:06:08;9.40;80.10
75161;DHT22;67232;50.096;8.716;2023-02-20T08:08:36;9.40;79.70
75161;DHT22;67232;50.096;8.716;2023-02-20T08:11:02;9.40;79.80
75161;DHT22;67232;50.096;8.716;2023-02-20T08:13:28;9.50;79.90
75161;DHT22;67232;50.096;8.716;2023-02-20T08:15:54;9.60;79.50
75161;DHT22;67232;50.096;8.716;2023-02-20T08:18:19;9.60;79.50
75161;DHT22;67232;50.096;8.716;2023-02-20T08:20:47;9.70;79.60
75161;DHT22;67232;50.096;8.716;2023-02-20T08:23:19;10.00;79.10
75161;DHT22;67232;50.096;8.716;2023-02-20T08:25:45;10.10;78.80
75161;DHT22;67232;50.096;8.716;2023-02-20T08:28:11;10.20;78.40
75161;DHT22;67232;50.096;8.716;2023-02-20T08:30:37;10.30;78.60
75161;DHT22;67232;50.096;8.716;2023-02-20T08:33:03;10.60;78.10
75161;DHT22;67232;50.096;8.716;2023-02-20T08:35:32;10.50;78.30
75161;DHT22;67232;50.096;8.716;2023-02-20T08:38:04;10.70;78.10
75161;DHT22;67232;50.096;8.716;2023-02-20T08:40:30;10.80;78.00
75161;DHT22;67232;50.096;8.716;2023-02-20T08:42:59;11.10;77.30
75161;DHT22;67232;50.096;8.716;2023-02-20T08:45:27;11.70;76.60
75161;DHT22;67232;50.096;8.716;2023-02-20T08:47:56;12.30;75.20
75161;DHT22;67232;50.096;8.716;2023-02-20T08:50:26;12.80;72.90
75161;DHT22;67232;50.096;8.716;2023-02-20T08:52:51;13.10;72.00
75161;DHT22;67232;50.096;8.716;2023-02-20T08:55:17;12.80;71.90
75161;DHT22;67232;50.096;8.716;2023-02-20T08:57:42;13.10;71.60
75161;DHT22;67232;50.096;8.716;2023-02-20T09:00:18;13.50;70.50
75161;DHT22;67232;50.096;8.716;2023-02-20T09:02:46;14.20;69.20
75161;DHT22;67232;50.096;8.716;2023-02-20T09:05:13;14.90;67.90
75161;DHT22;67232;50.096;8.716;2023-02-20T09:07:46;15.30;66.20
75161;DHT22;67232;50.096;8.716;2023-02-20T09:10:12;15.60;64.20
75161;DHT22;67232;50.096;8.716;2023-02-20T09:12:46;16.70;62.60
75161;DHT22;67232;50.096;8.716;2023-02-20T09:15:12;17.50;60.70
75161;DHT22;67232;50.096;8.716;2023-02-20T09:18:03;18.70;58.10
75161;DHT22;67232;50.096;8.716;2023-02-20T09:20:33;19.60;55.80
75161;DHT22;67232;50.096;8.716;2023-02-20T09:23:02;20.00;55.40
75161;DHT22;67232;50.096;8.716;2023-02-20T09:25:29;20.30;54.40
75161;DHT22;67232;50.096;8.716;2023-02-20T09:27:57;20.40;54.60
75161;DHT22;67232;50.096;8.716;2023-02-20T09:30:23;21.00;52.40
75161;DHT22;67232;50.096;8.716;2023-02-20T09:32:50;21.50;52.20
75161;DHT22;67232;50.096;8.716;2023-02-20T09:35:25;21.00;52.10
75161;DHT22;67232;50.096;8.716;2023-02-20T09:37:54;19.40;54.50
75161;DHT22;67232;50.096;8.716;2023-02-20T09:40:23;18.90;56.00
75161;DHT22;67232;50.096;8.716;2023-02-20T09:45:58;18.70;56.80
75161;DHT22;67232;50.096;8.716;2023-02-20T09:48:42;18.60;56.30
75161;DHT22;67232;50.096;8.716;2023-02-20T09:51:16;18.40;57.20
75161;DHT22;67232;50.096;8.716;2023-02-20T09:56:50;17.40;58.90
75161;DHT22;67232;50.096;8.716;2023-02-20T09:59:21;16.40;61.20
75161;DHT22;67232;50.096;8.716;2023-02-20T10:02:03;15.90;62.60
75161;DHT22;67232;50.096;8.716;2023-02-20T10:04:35;16.20;63.00
75161;DHT22;67232;50.096;8.716;2023-02-20T10:09:53;17.30;60.40
75161;DHT22;67232;50.096;8.716;2023-02-20T10:20:27;19.80;55.30
75161;DHT22;67232;50.096;8.716;2023-02-20T10:22:57;20.50;54.00
75161;DHT22;67232;50.096;8.716;2023-02-20T10:25:36;19.90;54.70
75161;DHT22;67232;50.096;8.716;2023-02-20T10:28:19;20.60;53.70
75161;DHT22;67232;50.096;8.716;2023-02-20T10:36:19;23.10;49.00
75161;DHT22;67232;50.096;8.716;2023-02-20T10:39:04;23.00;48.70
75161;DHT22;67232;50.096;8.716;2023-02-20T10:41:38;23.40;48.50
75161;DHT22;67232;50.096;8.716;2023-02-20T10:46:50;24.70;46.20
75161;DHT22;67232;50.096;8.716;2023-02-20T10:49:26;26.50;43.40
75161;DHT22;67232;50.096;8.716;2023-02-20T10:51:58;27.60;41.50
75161;DHT22;67232;50.096;8.716;2023-02-20T10:54:33;28.40;40.60
75161;DHT22;67232;50.096;8.716;2023-02-20T10:57:21;28.50;40.20
75161;DHT22;67232;50.096;8.716;2023-02-20T10:59:48;29.30;38.70
75161;DHT22;67232;50.096;8.716;2023-02-20T11:02:23;29.70;38.40
75161;DHT22;67232;50.096;8.716;2023-02-20T11:05:02;30.00;38.10
75161;DHT22;67232;50.096;8.716;2023-02-20T11:07:32;30.90;38.00
75161;DHT22;67232;50.096;8.716;2023-02-20T11:09:58;31.90;36.20
75161;DHT22;67232;50.096;8.716;2023-02-20T11:12:34;32.60;35.50
75161;DHT22;67232;50.096;8.716;2023-02-20T11:15:06;32.30;35.60
75161;DHT22;67232;50.096;8.716;2023-02-20T11:17:33;30.70;35.90
75161;DHT22;67232;50.096;8.716;2023-02-20T11:19:59;29.20;37.40
75161;DHT22;67232;50.096;8.716;2023-02-20T11:22:43;29.10;37.30
75161;DHT22;67232;50.096;8.716;2023-02-20T11:25:25;27.50;38.90
75161;DHT22;67232;50.096;8.716;2023-02-20T11:28:22;27.80;38.50
75161;DHT22;67232;50.096;8.716;2023-02-20T11:30:58;28.20;38.70
75161;DHT22;67232;50.096;8.716;2023-02-20T11:33:28;29.60;37.40
75161;DHT22;67232;50.096;8.716;2023-02-20T11:35:56;28.40;38.20
75161;DHT22;67232;50.096;8.716;2023-02-20T11:43:27;30.70;36.10
75161;DHT22;67232;50.096;8.716;2023-02-20T11:46:08;30.90;35.40
75161;DHT22;67232;50.096;8.716;2023-02-20T11:48:34;31.00;35.80
75161;DHT22;67232;50.096;8.716;2023-02-20T11:51:04;32.00;34.60
75161;DHT22;67232;50.096;8.716;2023-02-20T11:53:32;32.90;33.70
75161;DHT22;67232;50.096;8.716;2023-02-20T11:56:16;30.80;35.40
75161;DHT22;67232;50.096;8.716;2023-02-20T11:58:45;30.60;35.00
75161;DHT22;67232;50.096;8.716;2023-02-20T12:01:33;30.10;35.40
75161;DHT22;67232;50.096;8.716;2023-02-20T12:04:00;31.60;34.50
75161;DHT22;67232;50.096;8.716;2023-02-20T12:08:59;32.20;33.20
75161;DHT22;67232;50.096;8.716;2023-02-20T12:11:26;31.90;33.40
75161;DHT22;67232;50.096;8.716;2023-02-20T12:13:56;32.90;32.70
75161;DHT22;67232;50.096;8.716;2023-02-20T12:17:03;30.40;34.00
75161;DHT22;67232;50.096;8.716;2023-02-20T12:19:36;31.00;34.30
75161;DHT22;67232;50.096;8.716;2023-02-20T12:24:58;31.60;33.30
75161;DHT22;67232;50.096;8.716;2023-02-20T12:27:56;32.30;32.80
75161;DHT22;67232;50.096;8.716;2023-02-20T12:30:37;33.50;32.40
75161;DHT22;67232;50.096;8.716;2023-02-20T12:38:48;33.10;32.00
75161;DHT22;67232;50.096;8.716;2023-02-20T12:47:38;31.20;32.60
75161;DHT22;67232;50.096;8.716;2023-02-20T12:50:17;31.90;32.10
75161;DHT22;67232;50.096;8.716;2023-02-20T12:52:58;29.30;33.90
75161;DHT22;67232;50.096;8.716;2023-02-20T13:01:17;31.10;33.80
75161;DHT22;67232;50.096;8.716;2023-02-20T13:04:05;32.10;31.60
75161;DHT22;67232;50.096;8.716;2023-02-20T13:06:43;31.10;32.70
75161;DHT22;67232;50.096;8.716;2023-02-20T13:09:54;28.00;34.50
75161;DHT22;67232;50.096;8.716;2023-02-20T13:12:14;28.20;34.90
75161;DHT22;67232;50.096;8.716;2023-02-20T13:20:21;24.50;37.90
75161;DHT22;67232;50.096;8.716;2023-02-20T13:25:43;21.40;42.30
75161;DHT22;67232;50.096;8.716;2023-02-20T13:30:40;19.80;45.80
75161;DHT22;67232;50.096;8.716;2023-02-20T13:33:24;19.60;45.70
75161;DHT22;67232;50.096;8.716;2023-02-20T13:35:55;19.20;46.70
75161;DHT22;67232;50.096;8.716;2023-02-20T13:38:23;19.10;46.60
75161;DHT22;67232;50.096;8.716;2023-02-20T13:53:50;18.10;49.70
75161;DHT22;67232;50.096;8.716;2023-02-20T13:56:25;17.50;50.50
75161;DHT22;67232;50.096;8.716;2023-02-20T13:58:53;17.10;51.10
75161;DHT22;67232;50.096;8.716;2023-02-20T14:01:20;17.20;51.10
75161;DHT22;67232;50.096;8.716;2023-02-20T14:04:02;17.10;51.30
75161;DHT22;67232;50.096;8.716;2023-02-20T14:06:28;17.20;51.40
75161;DHT22;67232;50.096;8.716;2023-02-20T14:09:19;17.10;51.70
75161;DHT22;67232;50.096;8.716;2023-02-20T14:11:46;17.10;51.30
75161;DHT22;67232;50.096;8.716;2023-02-20T14:14:40;17.20;51.00
75161;DHT22;67232;50.096;8.716;2023-02-20T14:17:15;17.80;50.70
75161;DHT22;67232;50.096;8.716;2023-02-20T14:19:48;18.00;50.30
75161;DHT22;67232;50.096;8.716;2023-02-20T14:22:24;18.50;48.40
75161;DHT22;67232;50.096;8.716;2023-02-20T14:25:23;18.30;48.20
75161;DHT22;67232;50.096;8.716;2023-02-20T14:27:50;18.10;50.20
75161;DHT22;67232;50.096;8.716;2023-02-20T14:30:22;17.40;51.20
75161;DHT22;67232;50.096;8.716;2023-02-20T14:32:52;16.90;52.10
75161;DHT22;67232;50.096;8.716;2023-02-20T14:35:38;16.50;52.50
75161;DHT22;67232;50.096;8.716;2023-02-20T14:40:45;16.80;52.80
75161;DHT22;67232;50.096;8.716;2023-02-20T14:43:17;16.70;52.80
75161;DHT22;67232;50.096;8.716;2023-02-20T14:46:03;16.50;53.30
75161;DHT22;67232;50.096;8.716;2023-02-20T14:48:38;16.50;53.40
75161;DHT22;67232;50.096;8.716;2023-02-20T14:51:24;16.50;53.40
75161;DHT22;67232;50.096;8.716;2023-02-20T14:54:23;16.40;53.90
75161;DHT22;67232;50.096;8.716;2023-02-20T14:56:47;16.20;54.40
75161;DHT22;67232;50.096;8.716;2023-02-20T15:02:00;16.40;54.00
75161;DHT22;67232;50.096;8.716;2023-02-20T15:04:27;16.40;54.00
75161;DHT22;67232;50.096;8.716;2023-02-20T15:07:00;16.00;54.40
75161;DHT22;67232;50.096;8.716;2023-02-20T15:09:43;16.00;54.70
75161;DHT22;67232;50.096;8.716;2023-02-20T15:12:23;15.90;54.60
75161;DHT22;67232;50.096;8.716;2023-02-20T15:15:10;15.90;54.70
75161;DHT22;67232;50.096;8.716;2023-02-20T15:17:41;16.00;54.60
75161;DHT22;67232;50.096;8.716;2023-02-20T15:20:19;15.80;54.50
75161;DHT22;67232;50.096;8.716;2023-02-20T15:22:47;15.70;55.00
75161;DHT22;67232;50.096;8.716;2023-02-20T15:28:26;15.70;54.70
75161;DHT22;67232;50.096;8.716;2023-02-20T15:33:48;15.90;54.70
75161;DHT22;67232;50.096;8.716;2023-02-20T15:36:19;16.00;54.40
75161;DHT22;67232;50.096;8.716;2023-02-20T15:38:54;15.70;54.50
75161;DHT22;67232;50.096;8.716;2023-02-20T15:41:36;15.70;54.70
75161;DHT22;67232;50.096;8.716;2023-02-20T15:44:01;15.60;54.70
75161;DHT22;67232;50.096;8.716;2023-02-20T15:46:28;15.50;55.00
75161;DHT22;67232;50.096;8.716;2023-02-20T15:48:53;15.60;54.90
75161;DHT22;67232;50.096;8.716;2023-02-20T15:51:21;15.60;54.80
75161;DHT22;67232;50.096;8.716;2023-02-20T15:53:50;15.50;55.10
75161;DHT22;67232;50.096;8.716;2023-02-20T15:56:17;15.60;55.10
75161;DHT22;67232;50.096;8.716;2023-02-20T15:58:46;15.70;55.30
75161;DHT22;67232;50.096;8.716;2023-02-20T16:01:12;15.80;54.80
75161;DHT22;67232;50.096;8.716;2023-02-20T16:03:38;15.70;54.80
75161;DHT22;67232;50.096;8.716;2023-02-20T16:06:06;15.80;54.90
75161;DHT22;67232;50.096;8.716;2023-02-20T16:08:37;15.90;54.80
75161;DHT22;67232;50.096;8.716;2023-02-20T16:11:02;15.90;54.30
75161;DHT22;67232;50.096;8.716;2023-02-20T16:13:35;15.60;54.70
75161;DHT22;67232;50.096;8.716;2023-02-20T16:16:54;15.60;55.00
75161;DHT22;67232;50.096;8.716;2023-02-20T16:19:18;15.50;55.10
75161;DHT22;67232;50.096;8.716;2023-02-20T16:21:45;15.50;55.10
75161;DHT22;67232;50.096;8.716;2023-02-20T16:24:10;15.40;55.20
75161;DHT22;67232;50.096;8.716;2023-02-20T16:26:37;15.40;56.20
75161;DHT22;67232;50.096;8.716;2023-02-20T16:29:20;15.40;55.40
75161;DHT22;67232;50.096;8.716;2023-02-20T16:34:23;15.20;56.50
75161;DHT22;67232;50.096;8.716;2023-02-20T16:36:49;15.00;56.90
75161;DHT22;67232;50.096;8.716;2023-02-20T16:39:15;15.00;56.90
75161;DHT22;67232;50.096;8.716;2023-02-20T16:41:40;14.90;57.10
75161;DHT22;67232;50.096;8.716;2023-02-20T16:44:14;15.00;56.70
75161;DHT22;67232;50.096;8.716;2023-02-20T16:46:45;14.90;56.90
75161;DHT22;67232;50.096;8.716;2023-02-20T16:49:12;14.90;56.90
75161;DHT22;67232;50.096;8.716;2023-02-20T16:51:40;14.80;57.10
75161;DHT22;67232;50.096;8.716;2023-02-20T16:54:13;14.80;56.80
75161;DHT22;67232;50.096;8.716;2023-02-20T16:56:39;14.70;57.00
75161;DHT22;67232;50.096;8.716;2023-02-20T16:59:04;14.70;57.20
75161;DHT22;67232;50.096;8.716;2023-02-20T17:01:30;14.70;57.10
75161;DHT22;67232;50.096;8.716;2023-02-20T17:03:56;14.70;56.80
75161;DHT22;67232;50.096;8.716;2023-02-20T17:06:21;14.70;57.00
75161;DHT22;67232;50.096;8.716;2023-02-20T17:08:47;14.70;56.90
75161;DHT22;67232;50.096;8.716;2023-02-20T17:11:13;14.60;57.10
75161;DHT22;67232;50.096;8.716;2023-02-20T17:13:39;14.60;57.10
75161;DHT22;67232;50.096;8.716;2023-02-20T17:16:04;14.60;57.10
75161;DHT22;67232;50.096;8.716;2023-02-20T17:18:30;14.50;57.40
75161;DHT22;67232;50.096;8.716;2023-02-20T17:20:58;14.60;57.40
75161;DHT22;67232;50.096;8.716;2023-02-20T17:23:23;14.80;57.00
75161;DHT22;67232;50.096;8.716;2023-02-20T17:25:51;14.60;57.30
75161;DHT22;67232;50.096;8.716;2023-02-20T17:28:17;14.70;57.20
75161;DHT22;67232;50.096;8.716;2023-02-20T17:30:43;14.60;57.20
75161;DHT22;67232;50.096;8.716;2023-02-20T17:33:14;14.50;57.50
75161;DHT22;67232;50.096;8.716;2023-02-20T17:35:40;14.60;57.50
75161;DHT22;67232;50.096;8.716;2023-02-20T17:38:05;14.70;57.30
75161;DHT22;67232;50.096;8.716;2023-02-20T17:40:33;14.50;57.70
75161;DHT22;67232;50.096;8.716;2023-02-20T17:42:59;14.50;57.70
75161;DHT22;67232;50.096;8.716;2023-02-20T17:45:25;14.40;57.90
75161;DHT22;67232;50.096;8.716;2023-02-20T17:47:50;14.50;58.10
75161;DHT22;67232;50.096;8.716;2023-02-20T17:50:17;14.50;58.20
75161;DHT22;67232;50.096;8.716;2023-02-20T17:52:43;14.60;58.00
75161;DHT22;67232;50.096;8.716;2023-02-20T17:55:16;14.60;58.10
75161;DHT22;67232;50.096;8.716;2023-02-20T17:57:42;14.50;58.20
75161;DHT22;67232;50.096;8.716;2023-02-20T18:00:08;14.50;58.40
75161;DHT22;67232;50.096;8.716;2023-02-20T18:02:34;14.50;58.50
75161;DHT22;67232;50.096;8.716;2023-02-20T18:04:59;14.50;58.70
75161;DHT22;67232;50.096;8.716;2023-02-20T18:07:25;14.60;58.60
75161;DHT22;67232;50.096;8.716;2023-02-20T18:09:53;14.70;58.60